createdAt,value
2022-10-05T00:01:29.887Z,78.61
2022-10-05T00:04:09.171Z,78.65
2022-10-05T00:06:37.878Z,78.56
2022-10-05T00:09:13.050Z,78.64
2022-10-05T00:11:41.818Z,78.66
2022-10-05T00:14:16.818Z,78.56
2022-10-05T00:16:46.017Z,78.64
2022-10-05T00:19:32.954Z,78.69
2022-10-05T00:22:10.736Z,78.63
2022-10-05T00:24:39.376Z,78.66
2022-10-05T00:27:16.685Z,78.61
2022-10-05T00:29:45.781Z,78.51
2022-10-05T00:32:14.622Z,78.55
2022-10-05T00:34:44.396Z,78.57
2022-10-05T00:37:14.926Z,78.50
2022-10-05T00:39:43.971Z,78.58
2022-10-05T00:42:29.345Z,78.43
2022-10-05T00:45:02.556Z,78.49
2022-10-05T00:47:41.326Z,78.44
2022-10-05T00:50:25.780Z,78.46
2022-10-05T00:53:01.324Z,78.35
2022-10-05T00:55:42.164Z,78.44
2022-10-05T00:58:23.616Z,78.37
2022-10-05T01:01:02.087Z,78.27
2022-10-05T01:03:39.796Z,78.13
2022-10-05T01:06:18.557Z,78.28
2022-10-05T01:08:58.001Z,78.31
2022-10-05T01:11:30.580Z,78.29
2022-10-05T01:14:08.310Z,78.21
2022-10-05T01:16:47.927Z,78.23
2022-10-05T01:19:36.187Z,78.14
2022-10-05T01:22:15.548Z,78.27
2022-10-05T01:25:05.274Z,78.10
2022-10-05T01:27:54.908Z,78.18
2022-10-05T01:30:24.249Z,78.07
2022-10-05T01:33:01.926Z,77.99
2022-10-05T01:35:41.564Z,78.17
2022-10-05T01:38:24.238Z,78.03
2022-10-05T01:41:02.047Z,78.10
2022-10-05T01:43:40.604Z,78.07
2022-10-05T01:46:23.791Z,78.01
2022-10-05T01:49:06.411Z,78.00
2022-10-05T01:51:43.479Z,77.99
2022-10-05T01:54:26.248Z,78.08
2022-10-05T01:57:05.274Z,78.07
2022-10-05T01:59:48.362Z,78.01
2022-10-05T02:02:19.281Z,78.05
2022-10-05T02:05:06.470Z,78.12
2022-10-05T02:07:40.262Z,78.18
2022-10-05T02:10:18.774Z,78.11
2022-10-05T02:12:52.426Z,78.17
2022-10-05T02:15:27.164Z,78.20
2022-10-05T02:18:10.699Z,78.17
2022-10-05T02:20:42.905Z,78.25
2022-10-05T02:23:16.676Z,78.31
2022-10-05T02:25:49.636Z,78.36
2022-10-05T02:28:23.610Z,78.46
2022-10-05T02:30:56.764Z,78.41
2022-10-05T02:33:29.804Z,78.50
2022-10-05T02:36:08.127Z,78.56
2022-10-05T02:38:47.884Z,78.66
2022-10-05T02:41:26.258Z,78.70
2022-10-05T02:44:04.183Z,78.64
2022-10-05T02:46:41.131Z,78.73
2022-10-05T02:49:21.610Z,78.75
2022-10-05T02:51:58.005Z,78.78
2022-10-05T02:54:42.588Z,78.75
2022-10-05T02:57:20.322Z,78.76
2022-10-05T02:59:56.938Z,78.94
2022-10-05T03:02:31.924Z,78.90
2022-10-05T03:05:12.764Z,78.83
2022-10-05T03:07:48.797Z,78.94
2022-10-05T03:10:25.573Z,79.05
2022-10-05T03:13:02.506Z,79.22
2022-10-05T03:15:54.827Z,79.20
2022-10-05T03:18:35.686Z,79.17
2022-10-05T03:21:14.439Z,79.28
2022-10-05T03:24:00.597Z,79.39
2022-10-05T03:26:39.380Z,79.50
2022-10-05T03:29:20.974Z,79.41
2022-10-05T03:31:58.231Z,79.45
2022-10-05T03:34:33.586Z,79.55
2022-10-05T03:37:10.557Z,79.46
2022-10-05T03:39:45.282Z,79.47
2022-10-05T03:42:25.154Z,79.49
2022-10-05T03:45:02.858Z,79.48
2022-10-05T03:47:39.788Z,79.56
2022-10-05T03:50:30.635Z,79.57
2022-10-05T03:53:05.617Z,79.64
2022-10-05T03:55:41.427Z,79.77
2022-10-05T03:58:17.063Z,79.78
2022-10-05T04:00:52.922Z,79.76
2022-10-05T04:03:25.976Z,79.86
2022-10-05T04:05:59.782Z,79.80
2022-10-05T04:08:38.662Z,79.91
2022-10-05T04:11:12.706Z,79.91
2022-10-05T04:13:46.629Z,79.98
2022-10-05T04:16:21.200Z,79.97
2022-10-05T04:18:56.386Z,79.86
2022-10-05T04:21:32.055Z,79.96
2022-10-05T04:24:04.943Z,79.91
2022-10-05T04:26:41.349Z,79.87
2022-10-05T04:29:17.667Z,79.84
2022-10-05T04:32:03.705Z,79.83
2022-10-05T04:34:44.632Z,79.93
2022-10-05T04:37:19.753Z,80.02
2022-10-05T04:39:58.379Z,80.07
2022-10-05T04:42:36.136Z,80.12
2022-10-05T04:45:14.476Z,80.27
2022-10-05T04:48:03.578Z,80.36
2022-10-05T04:50:47.873Z,80.38
2022-10-05T04:53:27.764Z,80.44
2022-10-05T04:56:02.264Z,80.50
2022-10-05T04:58:43.833Z,80.56
2022-10-05T05:01:28.418Z,80.57
2022-10-05T05:04:13.669Z,80.56
2022-10-05T05:06:54.658Z,80.73
2022-10-05T05:09:42.750Z,80.70
2022-10-05T05:12:25.152Z,80.75
2022-10-05T05:15:08.047Z,80.77
2022-10-05T05:17:55.809Z,80.74
2022-10-05T05:20:35.810Z,80.81
2022-10-05T05:23:12.618Z,80.69
2022-10-05T05:25:57.023Z,80.74
2022-10-05T05:28:35.866Z,80.72
2022-10-05T05:31:15.436Z,80.64
2022-10-05T05:33:53.460Z,80.59
2022-10-05T05:36:55.540Z,80.38
2022-10-05T05:39:33.704Z,80.48
2022-10-05T05:42:20.026Z,80.32
2022-10-05T05:44:53.360Z,80.11
2022-10-05T05:47:29.151Z,80.27
2022-10-05T05:50:12.756Z,80.19
2022-10-05T05:52:49.310Z,80.20
2022-10-05T05:55:29.060Z,80.08
2022-10-05T05:58:04.035Z,80.00
2022-10-05T06:00:38.946Z,80.09
2022-10-05T06:03:19.259Z,79.91
2022-10-05T06:05:52.645Z,79.84
2022-10-05T06:08:29.758Z,79.60
2022-10-05T06:11:09.981Z,79.51
2022-10-05T06:13:40.666Z,79.48
2022-10-05T06:16:18.160Z,79.19
2022-10-05T06:18:53.442Z,79.19
2022-10-05T06:21:30.242Z,79.01
2022-10-05T06:24:04.791Z,78.83
2022-10-05T06:27:19.967Z,78.64
2022-10-05T06:30:03.378Z,78.50
2022-10-05T06:32:36.745Z,78.24
2022-10-05T06:35:15.612Z,78.06
2022-10-05T06:38:02.938Z,78.04
2022-10-05T06:40:47.538Z,77.82
2022-10-05T06:43:34.926Z,77.47
2022-10-05T06:46:30.067Z,77.19
2022-10-05T06:49:23.240Z,77.01
2022-10-05T06:52:25.269Z,76.82
2022-10-05T06:55:13.994Z,76.58
2022-10-05T06:57:55.373Z,76.53
2022-10-05T07:00:28.793Z,76.36
2022-10-05T07:03:05.045Z,76.18
2022-10-05T07:06:06.412Z,76.05
2022-10-05T07:08:47.323Z,75.91
2022-10-05T07:11:27.134Z,75.75
2022-10-05T07:14:11.719Z,75.67
2022-10-05T07:16:53.963Z,75.42
2022-10-05T07:19:36.738Z,75.40
2022-10-05T07:22:29.319Z,75.34
2022-10-05T07:25:07.836Z,74.90
2022-10-05T07:27:43.622Z,74.62
2022-10-05T07:30:14.910Z,74.35
2022-10-05T07:32:56.444Z,73.88
2022-10-05T07:35:53.513Z,73.48
2022-10-05T07:38:31.478Z,73.07
2022-10-05T07:41:06.847Z,72.21
2022-10-05T07:46:51.562Z,71.10
2022-10-05T07:49:32.046Z,70.97
2022-10-05T07:52:05.314Z,70.59
2022-10-05T07:54:45.084Z,70.37
2022-10-05T07:57:21.000Z,70.27
2022-10-05T07:59:56.581Z,70.26
2022-10-05T08:02:32.076Z,70.23
2022-10-05T08:05:05.472Z,70.29
2022-10-05T08:07:36.386Z,70.53
2022-10-05T08:10:19.618Z,69.48
2022-10-05T08:13:06.278Z,68.59
2022-10-05T08:15:40.313Z,68.36
2022-10-05T08:18:21.197Z,68.20
2022-10-05T08:20:54.634Z,67.93
2022-10-05T08:23:28.014Z,68.10
2022-10-05T08:26:08.753Z,67.65
2022-10-05T08:28:42.049Z,66.30
2022-10-05T08:31:18.942Z,65.31
2022-10-05T08:33:51.392Z,65.01
2022-10-05T08:36:28.396Z,64.99
2022-10-05T08:38:58.630Z,64.96
2022-10-05T08:42:01.523Z,65.08
2022-10-05T08:45:03.185Z,64.85
2022-10-05T08:47:59.601Z,64.76
2022-10-05T08:50:43.634Z,64.72
2022-10-05T08:53:41.723Z,64.75
2022-10-05T08:56:30.139Z,64.16
2022-10-05T08:59:22.391Z,64.21
2022-10-05T09:02:17.025Z,63.78
2022-10-05T09:05:10.876Z,63.56
2022-10-05T09:08:02.036Z,63.17
2022-10-05T09:10:58.809Z,62.77
2022-10-05T09:13:38.279Z,62.61
2022-10-05T09:16:35.603Z,62.56
2022-10-05T09:19:40.222Z,62.07
2022-10-05T09:22:15.763Z,62.14
2022-10-05T09:24:55.091Z,61.96
2022-10-05T09:27:37.578Z,61.68
2022-10-05T09:30:20.054Z,61.35
2022-10-05T09:33:38.455Z,60.84
2022-10-05T09:36:38.557Z,60.53
2022-10-05T09:39:39.577Z,60.57
2022-10-05T09:42:27.733Z,60.62
2022-10-05T09:45:31.379Z,60.95
2022-10-05T09:48:41.342Z,60.78
2022-10-05T09:51:42.700Z,59.76
2022-10-05T09:54:46.985Z,59.13
2022-10-05T09:57:41.774Z,59.42
2022-10-05T10:00:21.243Z,59.68
2022-10-05T10:03:24.296Z,58.92
2022-10-05T10:06:14.381Z,58.44
2022-10-05T10:09:03.772Z,58.52
2022-10-05T10:11:44.787Z,58.61
2022-10-05T10:14:55.764Z,58.78
2022-10-05T10:17:47.167Z,58.62
2022-10-05T10:20:30.812Z,57.75
2022-10-05T10:23:14.715Z,57.37
2022-10-05T10:26:02.356Z,56.59
2022-10-05T10:28:55.875Z,56.68
2022-10-05T10:31:53.491Z,56.39
2022-10-05T10:34:42.089Z,55.33
2022-10-05T10:37:36.606Z,54.25
2022-10-05T10:40:20.783Z,54.18
2022-10-05T10:43:08.897Z,54.57
2022-10-05T10:45:50.512Z,54.31
2022-10-05T10:48:56.844Z,54.44
2022-10-05T10:51:48.957Z,53.58
2022-10-05T10:55:03.762Z,54.00
2022-10-05T10:57:49.451Z,53.88
2022-10-05T11:00:45.591Z,54.21
2022-10-05T11:03:48.474Z,54.70
2022-10-05T11:06:39.611Z,54.32
2022-10-05T11:09:34.546Z,54.20
2022-10-05T11:12:34.746Z,54.21
2022-10-05T11:15:29.025Z,53.91
2022-10-05T11:18:15.797Z,54.08
2022-10-05T11:21:20.625Z,54.14
2022-10-05T11:24:38.388Z,53.77
2022-10-05T11:27:37.147Z,54.03
2022-10-05T11:30:50.473Z,54.38
2022-10-05T11:33:48.519Z,54.28
2022-10-05T11:36:42.372Z,54.02
2022-10-05T11:39:41.025Z,54.03
2022-10-05T11:42:42.785Z,54.11
2022-10-05T11:45:25.070Z,54.21
2022-10-05T11:48:28.954Z,54.09
2022-10-05T11:51:34.278Z,53.84
2022-10-05T11:54:17.098Z,53.77
2022-10-05T11:56:54.703Z,53.78
2022-10-05T11:59:34.518Z,53.78
2022-10-05T12:02:15.944Z,54.14
2022-10-05T12:04:52.176Z,53.83
2022-10-05T12:07:31.103Z,54.17
2022-10-05T12:10:16.465Z,54.02
2022-10-05T12:12:58.821Z,54.55
2022-10-05T12:15:34.672Z,54.46
2022-10-05T12:18:12.911Z,54.72
2022-10-05T12:20:49.698Z,54.69
2022-10-05T12:23:24.331Z,54.86
2022-10-05T12:26:01.039Z,54.95
2022-10-05T12:28:36.319Z,55.07
2022-10-05T12:31:18.833Z,55.36
2022-10-05T12:33:56.643Z,55.57
2022-10-05T12:36:59.202Z,55.69
2022-10-05T12:39:31.133Z,55.79
2022-10-05T12:42:12.120Z,55.77
2022-10-05T12:45:03.715Z,55.85
2022-10-05T12:47:44.524Z,56.05
2022-10-05T12:50:26.633Z,55.91
2022-10-05T12:53:07.951Z,55.97
2022-10-05T12:55:47.586Z,56.15
2022-10-05T12:58:27.317Z,56.40
2022-10-05T13:01:06.048Z,56.03
2022-10-05T13:03:39.108Z,55.83
2022-10-05T13:06:17.567Z,55.67
2022-10-05T13:08:55.835Z,56.01
2022-10-05T13:11:35.846Z,56.17
2022-10-05T13:14:15.834Z,56.25
2022-10-05T13:16:54.748Z,56.58
2022-10-05T13:19:34.303Z,56.78
2022-10-05T13:22:18.266Z,56.66
2022-10-05T13:24:59.459Z,56.86
2022-10-05T13:27:34.817Z,57.00
2022-10-05T13:30:13.369Z,57.12
2022-10-05T13:32:45.761Z,57.30
2022-10-05T13:35:37.804Z,57.39
2022-10-05T13:38:20.686Z,57.45
2022-10-05T13:40:58.476Z,57.66
2022-10-05T13:46:22.913Z,58.26
2022-10-05T13:49:03.426Z,58.62
2022-10-05T13:51:45.614Z,58.27
2022-10-05T13:54:23.053Z,58.29
2022-10-05T13:56:58.923Z,58.49
2022-10-05T13:59:38.106Z,58.53
2022-10-05T14:02:10.816Z,58.65
2022-10-05T14:04:50.941Z,58.84
2022-10-05T14:07:30.033Z,59.01
2022-10-05T14:10:00.859Z,59.29
2022-10-05T14:12:37.707Z,59.47
2022-10-05T14:15:23.027Z,59.54
2022-10-05T14:17:54.182Z,59.80
2022-10-05T14:20:25.616Z,59.78
2022-10-05T14:22:59.648Z,60.14
2022-10-05T14:25:29.847Z,60.29
2022-10-05T14:28:20.509Z,60.50
2022-10-05T14:30:59.313Z,60.66
2022-10-05T14:33:33.573Z,60.77
2022-10-05T14:36:02.779Z,61.07
2022-10-05T14:38:49.767Z,61.18
2022-10-05T14:41:20.471Z,61.48
2022-10-05T14:43:55.264Z,61.45
2022-10-05T14:46:29.310Z,61.68
2022-10-05T14:49:13.234Z,61.82
2022-10-05T14:51:55.983Z,61.96
2022-10-05T14:54:45.134Z,62.17
2022-10-05T14:57:24.796Z,62.43
2022-10-05T15:00:03.961Z,62.58
2022-10-05T15:02:53.623Z,62.70
2022-10-05T15:05:30.804Z,62.91
2022-10-05T15:08:12.345Z,63.02
2022-10-05T15:11:01.817Z,63.23
2022-10-05T15:13:36.236Z,63.46
2022-10-05T15:16:14.395Z,63.53
2022-10-05T15:18:48.592Z,63.68
2022-10-05T15:21:34.628Z,63.81
2022-10-05T15:24:09.198Z,64.00
2022-10-05T15:26:50.019Z,64.20
2022-10-05T15:29:44.318Z,64.32
2022-10-05T15:32:28.252Z,64.35
2022-10-05T15:35:26.227Z,64.52
2022-10-05T15:38:01.175Z,64.59
2022-10-05T15:40:39.716Z,64.80
2022-10-05T15:43:15.483Z,64.82
2022-10-05T15:45:55.969Z,64.91
2022-10-05T15:48:36.132Z,64.96
2022-10-05T15:51:16.096Z,65.04
2022-10-05T15:54:14.599Z,65.18
2022-10-05T15:56:50.694Z,65.16
2022-10-05T15:59:26.706Z,65.24
2022-10-05T16:02:00.966Z,65.30
2022-10-05T16:04:44.805Z,65.49
2022-10-05T16:07:38.377Z,65.50
2022-10-05T16:10:15.990Z,65.62
2022-10-05T16:12:57.008Z,65.81
2022-10-05T16:15:33.246Z,65.93
2022-10-05T16:18:22.903Z,66.14
2022-10-05T16:20:59.462Z,66.29
2022-10-05T16:23:38.484Z,66.58
2022-10-05T16:26:23.347Z,66.60
2022-10-05T16:29:04.172Z,66.89
2022-10-05T16:31:40.415Z,67.06
2022-10-05T16:34:23.233Z,67.18
2022-10-05T16:37:03.304Z,67.39
2022-10-05T16:39:47.969Z,67.58
2022-10-05T16:42:29.154Z,67.63
2022-10-05T16:45:07.926Z,67.79
2022-10-05T16:47:46.908Z,68.01
2022-10-05T16:50:23.323Z,68.05
2022-10-05T16:52:58.973Z,68.29
2022-10-05T16:55:34.708Z,68.26
2022-10-05T16:58:11.690Z,68.46
2022-10-05T17:00:51.439Z,68.53
2022-10-05T17:03:34.085Z,68.66
2022-10-05T17:06:39.417Z,68.66
2022-10-05T17:09:32.723Z,68.89
2022-10-05T17:12:21.403Z,68.99
2022-10-05T17:15:09.637Z,69.07
2022-10-05T17:18:03.085Z,69.15
2022-10-05T17:20:44.395Z,69.25
2022-10-05T17:23:31.484Z,69.22
2022-10-05T17:26:16.190Z,69.24
2022-10-05T17:29:00.722Z,69.47
2022-10-05T17:31:31.483Z,69.52
2022-10-05T17:34:25.677Z,69.54
2022-10-05T17:36:59.222Z,69.56
2022-10-05T17:39:50.305Z,69.76
2022-10-05T17:42:47.677Z,69.85
2022-10-05T17:45:52.342Z,69.80
2022-10-05T17:48:42.417Z,69.89
2022-10-05T17:51:57.513Z,69.80
2022-10-05T17:54:48.137Z,69.90
2022-10-05T17:57:21.727Z,69.97
2022-10-05T18:00:00.414Z,70.01
2022-10-05T18:02:50.155Z,70.15
2022-10-05T18:05:27.245Z,70.17
2022-10-05T18:08:36.610Z,70.14
2022-10-05T18:11:16.496Z,70.24
2022-10-05T18:13:49.398Z,70.25
2022-10-05T18:16:50.462Z,70.31
2022-10-05T18:19:22.827Z,70.36
2022-10-05T18:22:26.926Z,70.33
2022-10-05T18:25:05.298Z,70.27
2022-10-05T18:28:00.210Z,70.15
2022-10-05T18:30:38.676Z,70.17
2022-10-05T18:33:31.897Z,70.02
2022-10-05T18:36:18.506Z,69.96
2022-10-05T18:38:55.916Z,70.00
2022-10-05T18:41:36.718Z,69.85
2022-10-05T18:44:23.556Z,69.76
2022-10-05T18:47:00.701Z,69.70
2022-10-05T18:49:42.401Z,69.67
2022-10-05T18:52:20.065Z,69.59
2022-10-05T18:54:59.419Z,69.43
2022-10-05T18:57:44.385Z,69.36
2022-10-05T19:00:17.424Z,69.30
2022-10-05T19:02:51.353Z,69.27
2022-10-05T19:05:47.876Z,69.20
2022-10-05T19:08:32.217Z,69.27
2022-10-05T19:11:13.378Z,69.20
2022-10-05T19:13:50.422Z,69.24
2022-10-05T19:16:37.286Z,69.08
2022-10-05T19:19:33.101Z,69.12
2022-10-05T19:22:10.005Z,69.28
2022-10-05T19:24:59.657Z,69.23
2022-10-05T19:27:39.468Z,69.18
2022-10-05T19:30:20.438Z,69.28
2022-10-05T19:33:18.204Z,69.22
2022-10-05T19:35:57.727Z,69.20
2022-10-05T19:38:35.824Z,69.20
2022-10-05T19:41:14.132Z,69.17
2022-10-05T19:44:08.031Z,69.10
2022-10-05T19:46:53.305Z,69.11
2022-10-05T19:49:58.797Z,69.15
2022-10-05T19:52:37.205Z,69.04
2022-10-05T19:55:14.778Z,69.07
2022-10-05T19:57:51.994Z,69.08
2022-10-05T20:00:26.462Z,69.03
2022-10-05T20:03:11.322Z,69.05
2022-10-05T20:05:40.503Z,69.02
2022-10-05T20:08:16.903Z,68.95
2022-10-05T20:11:03.369Z,69.09
2022-10-05T20:13:34.536Z,69.07
2022-10-05T20:16:46.750Z,69.05
2022-10-05T20:19:53.557Z,68.99
2022-10-05T20:22:32.673Z,69.09
2022-10-05T20:25:32.854Z,69.03
2022-10-05T20:28:02.471Z,69.00
2022-10-05T20:30:33.361Z,69.03
2022-10-05T20:33:04.120Z,69.02
2022-10-05T20:35:33.056Z,69.07
2022-10-05T20:38:13.895Z,69.08
2022-10-05T20:40:42.668Z,69.08
2022-10-05T20:43:11.887Z,69.11
2022-10-05T20:45:42.769Z,69.08
2022-10-05T20:48:13.581Z,69.18
2022-10-05T20:50:43.123Z,69.19
2022-10-05T20:53:12.616Z,69.21
2022-10-05T20:55:42.529Z,69.26
2022-10-05T20:58:11.346Z,69.31
2022-10-05T21:01:00.770Z,69.35
2022-10-05T21:03:30.298Z,69.44
2022-10-05T21:05:59.211Z,69.38
2022-10-05T21:08:28.471Z,69.35
2022-10-05T21:10:57.513Z,69.40
2022-10-05T21:13:26.561Z,69.41
2022-10-05T21:15:56.012Z,69.51
2022-10-05T21:18:25.174Z,69.45
2022-10-05T21:20:57.555Z,69.55
2022-10-05T21:23:28.979Z,69.51
2022-10-05T21:25:57.848Z,69.47
2022-10-05T21:28:27.251Z,69.60
2022-10-05T21:30:56.670Z,69.63
2022-10-05T21:33:26.127Z,69.62
2022-10-05T21:35:55.202Z,69.69
2022-10-05T21:38:24.312Z,69.77
2022-10-05T21:41:08.567Z,69.82
2022-10-05T21:43:37.350Z,69.78
2022-10-05T21:46:07.349Z,69.78
2022-10-05T21:48:37.796Z,69.93
2022-10-05T21:51:09.461Z,69.92
2022-10-05T21:53:42.257Z,69.91
2022-10-05T21:56:14.408Z,70.02
2022-10-05T21:58:46.444Z,70.13
2022-10-05T22:01:18.862Z,70.07
2022-10-05T22:03:51.315Z,70.11
2022-10-05T22:06:20.187Z,70.20
2022-10-05T22:08:49.087Z,70.20
2022-10-05T22:11:18.590Z,70.36
2022-10-05T22:13:49.395Z,70.37
2022-10-05T22:16:20.581Z,70.52
2022-10-05T22:18:49.593Z,70.48
2022-10-05T22:21:20.490Z,70.54
2022-10-05T22:23:49.322Z,70.73
2022-10-05T22:26:21.417Z,70.59
2022-10-05T22:28:54.906Z,70.71
2022-10-05T22:31:23.963Z,70.87
2022-10-05T22:33:53.071Z,70.88
2022-10-05T22:36:22.137Z,71.05
2022-10-05T22:38:51.327Z,71.04
2022-10-05T22:41:20.490Z,71.06
2022-10-05T22:43:50.347Z,71.20
2022-10-05T22:46:19.290Z,71.24
2022-10-05T22:48:48.163Z,71.36
2022-10-05T22:51:17.646Z,71.46
2022-10-05T22:53:46.567Z,71.57
2022-10-05T22:56:15.603Z,71.61
2022-10-05T22:58:45.273Z,71.62
2022-10-05T23:01:18.113Z,71.64
2022-10-05T23:03:47.228Z,71.61
2022-10-05T23:06:18.087Z,71.75
2022-10-05T23:08:47.401Z,71.91
2022-10-05T23:11:18.729Z,71.97
2022-10-05T23:13:51.787Z,71.88
2022-10-05T23:16:22.629Z,72.03
2022-10-05T23:18:53.246Z,72.10
2022-10-05T23:21:23.954Z,72.11
2022-10-05T23:23:52.971Z,72.30
2022-10-05T23:26:23.575Z,72.37
2022-10-05T23:28:52.795Z,72.44
2022-10-05T23:31:24.694Z,72.58
2022-10-05T23:33:53.470Z,72.50
2022-10-05T23:36:24.503Z,72.56
2022-10-05T23:38:54.512Z,72.65
2022-10-05T23:41:24.846Z,72.74
2022-10-05T23:43:54.612Z,72.77
2022-10-05T23:46:23.400Z,72.83
2022-10-05T23:48:53.038Z,72.86
2022-10-05T23:51:21.912Z,73.04
2022-10-05T23:53:51.482Z,72.99
2022-10-05T23:56:20.715Z,72.95
2022-10-05T23:58:49.374Z,73.08
